Time;durP1;ratioP1;P1;durP2;ratioP2;P2;SDS_P1;SDS_P2;PMS_P1;PMS_P2;Temp;Humidity;BMP_temperature;BMP_pressure;BME280_temperature;BME280_humidity;BME280_pressure;Samples;Min_cycle;Max_cycle;Signal;HPM_P1;HPM_P2
2024/04/19 00:07:11;;;;;;;1.98;0.28;;;;;;;;;;22569538;26;20014;-45
2024/04/19 00:17:13;;;;;;;1.73;0.15;;;;;;;;;;22561202;26;20446;-46
2024/04/19 00:27:15;;;;;;;2.95;0.10;;;;;;;;;;22699342;26;20350;-45
2024/04/19 00:37:17;;;;;;;1.88;0.20;;;;;;;;;;22684302;26;20016;-45
2024/04/19 00:47:19;;;;;;;1.45;0.20;;;;;;;;;;22699563;26;20003;-45
2024/04/19 00:57:21;;;;;;;2.90;0.20;;;;;;;;;;22698984;26;20021;-45
2024/04/19 01:07:23;;;;;;;2.33;0.30;;;;;;;;;;22698255;26;20034;-45
2024/04/19 01:17:24;;;;;;;2.05;0.20;;;;;;;;;;22697408;26;20017;-45
2024/04/19 01:27:26;;;;;;;2.38;0.28;;;;;;;;;;22664987;26;20437;-45
2024/04/19 01:37:27;;;;;;;0.75;0.22;;;;;;;;;;22702346;26;20017;-46
2024/04/19 01:47:29;;;;;;;1.40;0.20;;;;;;;;;;22754437;26;20459;-45
2024/04/19 01:57:31;;;;;;;1.48;0.30;;;;;;;;;;22794856;26;20067;-44
2024/04/19 02:07:32;;;;;;;0.90;0.22;;;;;;;;;;22710114;26;20314;-44
2024/04/19 02:17:34;;;;;;;1.33;0.20;;;;;;;;;;22708218;26;20082;-43
2024/04/19 02:38:38;;;;;;;1.25;0.28;;;;;;;;;;22628675;26;19994;-44
2024/04/19 02:48:40;;;;;;;1.23;0.25;;;;;;;;;;22706919;26;20016;-46
2024/04/19 02:58:41;;;;;;;0.52;0.20;;;;;;;;;;22707394;26;20002;-44
2024/04/19 03:08:43;;;;;;;1.40;0.30;;;;;;;;;;22520719;26;20495;-44
2024/04/19 03:18:44;;;;;;;1.73;0.30;;;;;;;;;;22603512;26;20018;-43
2024/04/19 03:28:46;;;;;;;3.30;0.40;;;;;;;;;;22702278;26;20012;-46
2024/04/19 03:38:47;;;;;;;2.40;0.47;;;;;;;;;;22679624;26;20021;-46
2024/04/19 03:48:49;;;;;;;2.85;0.40;;;;;;;;;;22543932;26;20331;-47
2024/04/19 03:58:51;;;;;;;2.97;0.47;;;;;;;;;;22685214;26;20058;-45
2024/04/19 04:19:50;;;;;;;3.97;0.50;;;;;;;;;;22700033;26;20025;-45
2024/04/19 04:29:52;;;;;;;2.90;0.30;;;;;;;;;;22671062;26;20002;-45
2024/04/19 04:39:53;;;;;;;1.52;0.30;;;;;;;;;;22625129;26;20013;-44
2024/04/19 04:49:55;;;;;;;1.83;0.30;;;;;;;;;;22636704;26;20157;-43
2024/04/19 04:59:58;;;;;;;1.38;0.30;;;;;;;;;;22700866;26;20018;-44
2024/04/19 05:10:00;;;;;;;2.90;0.40;;;;;;;;;;22700867;26;20006;-44
2024/04/19 05:20:03;;;;;;;1.85;0.47;;;;;;;;;;22713785;26;20010;-44
2024/04/19 05:30:05;;;;;;;3.47;0.30;;;;;;;;;;22678813;26;20006;-45
2024/04/19 05:40:08;;;;;;;0.90;0.45;;;;;;;;;;22675751;26;20002;-45
2024/04/19 05:50:10;;;;;;;2.22;0.68;;;;;;;;;;22661400;26;19998;-46
2024/04/19 06:00:12;;;;;;;2.40;0.80;;;;;;;;;;22630844;26;20011;-44
2024/04/19 06:10:13;;;;;;;1.95;0.47;;;;;;;;;;22711756;26;20346;-43
2024/04/19 06:20:15;;;;;;;1.67;0.40;;;;;;;;;;22709592;26;20021;-44
2024/04/19 06:30:16;;;;;;;2.80;0.50;;;;;;;;;;22709825;26;20473;-45
2024/04/19 06:40:18;;;;;;;2.40;0.70;;;;;;;;;;22709489;26;20002;-45
2024/04/19 06:50:22;;;;;;;2.03;0.93;;;;;;;;;;22707439;26;20291;-45
2024/04/19 07:11:20;;;;;;;4.20;0.70;;;;;;;;;;22639005;26;20002;-45
2024/04/19 07:21:22;;;;;;;6.45;1.27;;;;;;;;;;22704136;26;20002;-45
2024/04/19 07:31:24;;;;;;;4.88;0.60;;;;;;;;;;22690339;26;20319;-45
2024/04/19 07:41:26;;;;;;;5.78;1.48;;;;;;;;;;22704194;26;20078;-45
2024/04/19 07:51:29;;;;;;;4.23;0.90;;;;;;;;;;22617456;26;20013;-44
2024/04/19 08:01:31;;;;;;;5.38;0.73;;;;;;;;;;22674095;26;20085;-46
2024/04/19 08:11:32;;;;;;;6.15;0.75;;;;;;;;;;22693473;26;20082;-46
2024/04/19 08:21:34;;;;;;;4.72;0.90;;;;;;;;;;22694952;26;20017;-46
2024/04/19 08:32:09;;;;;;;7.88;0.90;;;;;;;;;;22668141;26;20015;-46
2024/04/19 08:42:10;;;;;;;3.08;0.88;;;;;;;;;;22625789;26;20002;-45
2024/04/19 08:52:12;;;;;;;3.67;1.23;;;;;;;;;;22697790;26;20002;-45
2024/04/19 09:02:14;;;;;;;3.28;0.60;;;;;;;;;;22697905;26;20408;-45
2024/04/19 09:12:16;;;;;;;8.10;0.80;;;;;;;;;;22519214;26;20014;-45
2024/04/19 09:22:18;;;;;;;6.00;0.80;;;;;;;;;;22632300;26;20330;-46
2024/04/19 09:43:23;;;;;;;5.18;1.08;;;;;;;;;;22643008;26;20002;-45
2024/04/19 09:53:31;;;;;;;4.72;1.20;;;;;;;;;;22655756;26;20079;-47
2024/04/19 10:03:32;;;;;;;5.82;1.58;;;;;;;;;;22555729;26;20026;-46
2024/04/19 10:13:34;;;;;;;3.45;1.38;;;;;;;;;;22556955;26;20311;-46
2024/04/19 10:23:37;;;;;;;6.72;1.38;;;;;;;;;;22663874;26;20010;-46
2024/04/19 10:33:39;;;;;;;6.47;1.30;;;;;;;;;;22708755;26;20010;-45
2024/04/19 10:43:42;;;;;;;5.30;1.27;;;;;;;;;;22635577;26;20021;-47
2024/04/19 10:53:43;;;;;;;14.95;9.15;;;;;;;;;;22453588;26;20000;-46
2024/04/19 11:03:47;;;;;;;6.88;2.20;;;;;;;;;;22412708;26;20439;-46
2024/04/19 11:13:51;;;;;;;5.97;1.52;;;;;;;;;;22432766;26;20002;-46
2024/04/19 11:23:52;;;;;;;15.00;2.90;;;;;;;;;;22558349;26;20047;-46
2024/04/19 11:33:54;;;;;;;9.90;1.88;;;;;;;;;;22500666;26;20755;-46
2024/04/19 11:43:58;;;;;;;8.70;1.83;;;;;;;;;;22589364;26;20010;-44
2024/04/19 11:54:01;;;;;;;8.53;2.07;;;;;;;;;;22697524;26;20002;-45
2024/04/19 12:04:02;;;;;;;10.50;1.80;;;;;;;;;;22702768;26;20017;-46
2024/04/19 12:14:05;;;;;;;9.32;2.22;;;;;;;;;;22667911;26;20017;-47
2024/04/19 12:24:07;;;;;;;7.75;1.83;;;;;;;;;;22703025;26;20157;-45
2024/04/19 12:34:08;;;;;;;12.65;2.35;;;;;;;;;;22685420;26;20096;-45
2024/04/19 12:44:10;;;;;;;8.95;2.33;;;;;;;;;;22667847;26;20449;-45
2024/04/19 12:54:14;;;;;;;11.27;1.80;;;;;;;;;;22695605;26;20002;-46
2024/04/19 13:04:16;;;;;;;8.20;1.93;;;;;;;;;;22585084;26;20003;-46
2024/04/19 13:14:17;;;;;;;11.38;1.70;;;;;;;;;;22553917;26;20151;-47
2024/04/19 13:24:21;;;;;;;13.80;2.03;;;;;;;;;;22699720;26;20009;-53
2024/04/19 13:34:48;;;;;;;6.05;1.70;;;;;;;;;;22630265;26;20003;-52
2024/04/19 13:44:49;;;;;;;7.18;1.50;;;;;;;;;;22641802;26;20014;-53
2024/04/19 13:54:52;;;;;;;8.63;2.05;;;;;;;;;;22692207;26;20074;-53
2024/04/19 14:04:53;;;;;;;9.32;1.90;;;;;;;;;;22711740;26;20115;-52
2024/04/19 14:14:56;;;;;;;10.15;2.40;;;;;;;;;;22711265;26;20013;-53
2024/04/19 14:24:59;;;;;;;6.60;1.73;;;;;;;;;;22713093;26;20510;-53
2024/04/19 14:35:02;;;;;;;6.40;1.60;;;;;;;;;;22696573;26;20002;-51
2024/04/19 14:45:04;;;;;;;9.15;2.20;;;;;;;;;;22679184;26;20008;-50
2024/04/19 14:55:06;;;;;;;8.38;1.70;;;;;;;;;;22632219;26;20003;-47
2024/04/19 15:05:08;;;;;;;12.48;2.08;;;;;;;;;;22704487;26;20030;-48
2024/04/19 15:15:11;;;;;;;6.43;1.60;;;;;;;;;;22671339;26;20045;-47
2024/04/19 15:25:14;;;;;;;6.73;1.60;;;;;;;;;;22690880;26;20018;-48
2024/04/19 15:35:16;;;;;;;6.85;1.60;;;;;;;;;;22706316;26;19998;-47
2024/04/19 15:45:19;;;;;;;4.90;1.30;;;;;;;;;;22705757;26;20002;-48
2024/04/19 15:55:21;;;;;;;7.30;1.85;;;;;;;;;;22707968;26;20475;-50
2024/04/19 16:05:24;;;;;;;6.82;2.10;;;;;;;;;;22708791;26;20367;-51
2024/04/19 16:15:25;;;;;;;4.68;1.38;;;;;;;;;;22709969;26;20546;-49
2024/04/19 16:25:28;;;;;;;6.57;1.40;;;;;;;;;;22708401;26;20047;-50
2024/04/19 16:35:30;;;;;;;6.20;1.20;;;;;;;;;;22677080;26;20002;-49
2024/04/19 16:45:31;;;;;;;6.47;1.50;;;;;;;;;;22681784;26;20332;-53
2024/04/19 16:55:33;;;;;;;5.07;1.20;;;;;;;;;;22704032;26;20002;-52
2024/04/19 17:05:36;;;;;;;5.10;1.35;;;;;;;;;;22702097;26;20002;-52
2024/04/19 17:15:38;;;;;;;5.32;2.20;;;;;;;;;;22688534;26;20017;-52
2024/04/19 17:25:42;;;;;;;6.93;1.65;;;;;;;;;;22689140;26;20087;-54
2024/04/19 17:35:43;;;;;;;7.45;1.17;;;;;;;;;;22652057;26;19998;-52
2024/04/19 17:45:45;;;;;;;7.25;1.48;;;;;;;;;;22633393;26;20009;-52
2024/04/19 17:55:50;;;;;;;5.28;1.38;;;;;;;;;;22699695;26;20017;-52
2024/04/19 18:05:53;;;;;;;4.93;1.23;;;;;;;;;;22669069;26;20049;-49
2024/04/19 18:16:02;;;;;;;5.85;1.42;;;;;;;;;;22692021;26;19998;-49
2024/04/19 18:26:06;;;;;;;4.70;1.23;;;;;;;;;;22647505;26;20016;-48
2024/04/19 18:36:09;;;;;;;7.10;1.92;;;;;;;;;;22626849;26;20455;-52
2024/04/19 18:46:10;;;;;;;7.10;2.50;;;;;;;;;;22679447;26;20048;-52
2024/04/19 18:56:12;;;;;;;11.20;2.75;;;;;;;;;;22675302;26;20026;-50
2024/04/19 19:06:15;;;;;;;4.97;2.10;;;;;;;;;;22693120;26;20114;-50
2024/04/19 19:16:17;;;;;;;6.30;2.70;;;;;;;;;;22610560;26;20077;-50
2024/04/19 19:26:20;;;;;;;9.05;2.35;;;;;;;;;;22679125;26;20074;-49
2024/04/19 19:36:21;;;;;;;9.40;2.33;;;;;;;;;;22678603;26;20740;-50
2024/04/19 19:46:24;;;;;;;9.48;3.42;;;;;;;;;;22667739;26;20438;-50
2024/04/19 19:56:27;;;;;;;8.48;3.88;;;;;;;;;;22613395;26;20074;-52
2024/04/19 20:06:29;;;;;;;11.82;5.18;;;;;;;;;;22679244;26;20467;-43
2024/04/19 20:16:31;;;;;;;12.02;4.50;;;;;;;;;;22668384;26;20413;-44
2024/04/19 20:26:33;;;;;;;19.05;5.50;;;;;;;;;;22650227;26;19998;-43
2024/04/19 20:36:35;;;;;;;17.42;7.25;;;;;;;;;;22649602;26;20006;-44
2024/04/19 20:46:37;;;;;;;10.43;4.90;;;;;;;;;;22689722;26;20364;-43
2024/04/19 20:56:39;;;;;;;11.10;5.20;;;;;;;;;;22705038;26;20002;-45
2024/04/19 21:06:40;;;;;;;12.32;4.30;;;;;;;;;;22703319;26;20018;-43
2024/04/19 21:16:42;;;;;;;9.85;3.90;;;;;;;;;;22703600;26;20009;-43
2024/04/19 21:26:44;;;;;;;10.32;3.50;;;;;;;;;;22700837;26;20151;-42
2024/04/19 21:36:49;;;;;;;12.55;3.25;;;;;;;;;;22677282;26;20333;-43
2024/04/19 21:46:51;;;;;;;9.93;3.17;;;;;;;;;;22633343;26;19999;-43
2024/04/19 21:56:52;;;;;;;9.38;3.28;;;;;;;;;;22637054;26;20042;-43
2024/04/19 22:06:54;;;;;;;12.60;3.65;;;;;;;;;;22660788;26;20014;-44
2024/04/19 22:16:55;;;;;;;7.40;2.17;;;;;;;;;;22665232;26;20018;-46
2024/04/19 22:26:57;;;;;;;8.05;2.58;;;;;;;;;;22654265;26;20349;-45
2024/04/19 22:36:59;;;;;;;11.43;4.07;;;;;;;;;;22654497;26;20014;-45
2024/04/19 22:47:01;;;;;;;8.52;1.92;;;;;;;;;;22629791;26;19998;-45
2024/04/19 22:57:03;;;;;;;5.85;1.90;;;;;;;;;;22620277;26;20017;-44
2024/04/19 23:07:04;;;;;;;5.93;1.98;;;;;;;;;;22639896;26;19995;-45
2024/04/19 23:17:06;;;;;;;6.55;2.22;;;;;;;;;;22648920;26;20027;-43
2024/04/19 23:27:07;;;;;;;6.03;1.52;;;;;;;;;;22650779;26;19999;-44
2024/04/19 23:37:09;;;;;;;6.28;2.25;;;;;;;;;;22650641;26;19998;-45
2024/04/19 23:47:11;;;;;;;8.80;2.10;;;;;;;;;;22661467;26;20075;-44
2024/04/19 23:57:12;;;;;;;6.38;1.60;;;;;;;;;;22628842;26;20310;-44
